Time;durP1;ratioP1;P1;durP2;ratioP2;P2;SDS_P1;SDS_P2;PMS_P1;PMS_P2;Temp;Humidity;BMP_temperature;BMP_pressure;BME280_temperature;BME280_humidity;BME280_pressure;Samples;Min_cycle;Max_cycle;Signal;HPM_P1;HPM_P2
2022/08/19 00:00:13;;;;;;;126.43;59.33;;;;;;;19.54;100.00;100284.94;7395772;19;20035;-65
2022/08/19 00:02:43;;;;;;;107.43;55.25;;;;;;;19.57;100.00;100295.38;7396260;19;20011;-65
2022/08/19 00:05:15;;;;;;;123.90;57.22;;;;;;;19.59;100.00;100300.59;7393718;19;20419;-65
2022/08/19 00:07:45;;;;;;;106.10;52.70;;;;;;;19.59;100.00;100309.44;7395933;19;20010;-65
2022/08/19 00:10:16;;;;;;;124.32;56.65;;;;;;;19.59;100.00;100311.22;7396035;19;20022;-65
2022/08/19 00:12:45;;;;;;;130.27;60.35;;;;;;;19.59;100.00;100306.78;7395974;19;20033;-64
2022/08/19 00:15:20;;;;;;;104.78;53.10;;;;;;;19.59;100.00;100293.47;7393329;19;20018;-65
2022/08/19 00:17:49;;;;;;;75.70;45.28;;;;;;;19.53;100.00;100280.56;7395001;19;20014;-64
2022/08/19 00:20:21;;;;;;;94.20;50.97;;;;;;;19.46;100.00;100289.91;7394856;19;20031;-64
2022/08/19 00:22:50;;;;;;;101.70;50.83;;;;;;;19.44;100.00;100313.13;7393192;19;20015;-65
2022/08/19 00:25:19;;;;;;;114.95;55.08;;;;;;;19.46;100.00;100327.16;7393473;19;20042;-64
2022/08/19 00:27:48;;;;;;;102.97;53.85;;;;;;;19.48;100.00;100333.25;7394743;19;20623;-65
2022/08/19 00:30:19;;;;;;;118.53;56.58;;;;;;;19.52;100.00;100332.06;7395046;19;20018;-65
2022/08/19 00:32:48;;;;;;;125.88;58.13;;;;;;;19.49;100.00;100322.50;7393781;19;20022;-65
2022/08/19 00:35:17;;;;;;;131.77;60.17;;;;;;;19.48;100.00;100334.06;7392673;19;20018;-65
2022/08/19 00:37:45;;;;;;;137.43;61.83;;;;;;;19.48;100.00;100336.75;7393775;19;20037;-65
2022/08/19 00:40:15;;;;;;;139.98;60.97;;;;;;;19.46;100.00;100353.75;7394789;19;20010;-65
2022/08/19 00:42:44;;;;;;;128.93;60.25;;;;;;;19.45;100.00;100358.22;7394568;19;20022;-65
2022/08/19 00:45:16;;;;;;;127.93;58.75;;;;;;;19.42;100.00;100360.25;7392450;19;20492;-68
2022/08/19 00:47:48;;;;;;;128.57;59.97;;;;;;;19.39;100.00;100368.44;7393221;19;20042;-67
2022/08/19 00:50:20;;;;;;;137.88;59.75;;;;;;;19.37;100.00;100356.06;7394951;19;20011;-67
2022/08/19 00:52:51;;;;;;;146.15;59.30;;;;;;;19.33;100.00;100346.56;7392355;19;20032;-69
2022/08/19 00:55:23;;;;;;;142.80;60.50;;;;;;;19.24;100.00;100333.88;7392410;19;20036;-68
2022/08/19 00:57:57;;;;;;;146.80;61.03;;;;;;;19.21;100.00;100340.25;7393655;19;20014;-67
2022/08/19 01:00:28;;;;;;;135.05;60.28;;;;;;;19.19;100.00;100341.31;7392137;19;20015;-67
2022/08/19 01:02:59;;;;;;;125.78;56.15;;;;;;;19.16;100.00;100342.34;7392694;19;20018;-67
2022/08/19 01:05:31;;;;;;;139.32;59.78;;;;;;;19.13;100.00;100320.41;7391559;19;20023;-67
2022/08/19 01:08:03;;;;;;;145.73;58.17;;;;;;;19.11;100.00;100314.34;7391782;19;20014;-67
2022/08/19 01:10:46;;;;;;;144.32;58.58;;;;;;;19.04;100.00;100314.75;7392510;19;20026;-67
2022/08/19 01:13:16;;;;;;;115.97;52.58;;;;;;;19.01;100.00;100309.63;7393227;19;20101;-66
2022/08/19 01:15:49;;;;;;;128.52;55.70;;;;;;;18.98;100.00;100312.50;7392506;19;20042;-66
2022/08/19 01:18:22;;;;;;;126.63;55.10;;;;;;;18.96;100.00;100301.09;7396094;19;20027;-67
2022/08/19 01:20:51;;;;;;;112.30;53.20;;;;;;;18.93;100.00;100288.00;7398284;19;20427;-67
2022/08/19 01:23:42;;;;;;;112.32;53.58;;;;;;;18.93;100.00;100290.66;7400475;19;20078;-67
2022/08/19 01:26:13;;;;;;;109.28;52.30;;;;;;;18.90;100.00;100288.19;7400677;19;20015;-65
2022/08/19 01:28:43;;;;;;;106.95;51.50;;;;;;;18.87;100.00;100280.41;7401366;19;20432;-67
2022/08/19 01:31:15;;;;;;;95.60;48.90;;;;;;;18.87;100.00;100280.41;7398266;19;20108;-66
2022/08/19 01:33:44;;;;;;;122.38;55.33;;;;;;;18.86;100.00;100289.31;7398211;19;20027;-67
2022/08/19 01:36:15;;;;;;;137.05;57.33;;;;;;;18.87;100.00;100299.00;7400350;19;20018;-67
2022/08/19 01:38:46;;;;;;;133.30;55.30;;;;;;;18.85;100.00;100290.25;7399805;19;20078;-67
2022/08/19 01:41:16;;;;;;;154.57;61.22;;;;;;;18.85;100.00;100282.28;7400808;19;20035;-66
2022/08/19 01:43:44;;;;;;;170.43;62.35;;;;;;;18.84;100.00;100281.44;7399614;19;20015;-66
2022/08/19 01:46:13;;;;;;;136.55;56.45;;;;;;;18.83;100.00;100278.88;7400038;19;20027;-66
2022/08/19 01:48:45;;;;;;;130.65;55.88;;;;;;;18.82;100.00;100283.34;7399871;19;20506;-65
2022/08/19 01:51:15;;;;;;;149.63;59.30;;;;;;;18.82;100.00;100301.94;7399772;19;20015;-66
2022/08/19 01:53:50;;;;;;;127.55;56.92;;;;;;;18.84;100.00;100308.03;7399232;19;20387;-66
2022/08/19 01:56:19;;;;;;;148.30;59.00;;;;;;;18.85;100.00;100311.53;7400438;19;20052;-66
2022/08/19 01:58:51;;;;;;;139.88;57.97;;;;;;;18.85;100.00;100309.69;7398520;19;20022;-66
2022/08/19 02:01:21;;;;;;;126.82;55.13;;;;;;;18.85;100.00;100320.34;7397730;19;20011;-66
2022/08/19 02:03:51;;;;;;;147.13;60.38;;;;;;;18.86;100.00;100337.16;7398758;19;20031;-65
2022/08/19 02:06:20;;;;;;;145.85;59.97;;;;;;;18.87;100.00;100338.88;7397034;19;20477;-68
2022/08/19 02:08:51;;;;;;;153.70;59.80;;;;;;;18.90;100.00;100354.63;7397190;19;20081;-65
2022/08/19 02:11:26;;;;;;;150.15;57.45;;;;;;;18.94;100.00;100350.00;7399950;19;20423;-66
2022/08/19 02:13:55;;;;;;;167.35;62.17;;;;;;;18.95;100.00;100360.50;7397086;19;20022;-65
2022/08/19 02:16:24;;;;;;;159.10;60.42;;;;;;;18.96;100.00;100362.22;7399229;19;20022;-66
2022/08/19 02:18:53;;;;;;;143.75;56.60;;;;;;;18.97;100.00;100368.38;7397755;19;20078;-66
2022/08/19 02:21:24;;;;;;;125.47;52.35;;;;;;;18.94;100.00;100363.28;7397578;19;20387;-66
2022/08/19 02:23:55;;;;;;;130.95;54.47;;;;;;;18.91;100.00;100353.69;7398472;19;20015;-66
2022/08/19 02:26:26;;;;;;;133.52;54.40;;;;;;;18.88;100.00;100341.41;7396857;19;20078;-66
2022/08/19 02:28:55;;;;;;;119.65;53.08;;;;;;;18.85;100.00;100324.81;7398158;19;20037;-70
2022/08/19 02:31:27;;;;;;;143.23;58.30;;;;;;;18.80;100.00;100316.28;7395104;19;20042;-69
2022/08/19 02:33:57;;;;;;;123.07;55.22;;;;;;;18.76;100.00;100302.31;7397172;19;20018;-69
2022/08/19 02:36:27;;;;;;;123.28;56.58;;;;;;;18.73;100.00;100306.03;7398282;19;20414;-69
2022/08/19 02:38:56;;;;;;;131.10;56.85;;;;;;;18.71;100.00;100294.63;7397170;19;20014;-69
2022/08/19 02:41:34;;;;;;;131.23;57.55;;;;;;;18.69;100.00;100285.94;7398206;19;20014;-69
2022/08/19 02:44:04;;;;;;;110.82;53.90;;;;;;;18.65;100.00;100284.41;7397345;19;20039;-69
2022/08/19 02:46:36;;;;;;;136.95;57.88;;;;;;;18.66;100.00;100282.59;7396178;19;20364;-69
2022/08/19 02:49:07;;;;;;;137.15;59.83;;;;;;;18.66;100.00;100280.78;7398084;19;20014;-69
2022/08/19 02:51:41;;;;;;;133.30;58.30;;;;;;;18.68;100.00;100270.94;7398434;19;20018;-69
2022/08/19 02:54:13;;;;;;;117.22;56.60;;;;;;;18.66;100.00;100267.50;7396989;19;20022;-69
2022/08/19 02:56:44;;;;;;;116.88;56.58;;;;;;;18.65;100.00;100268.47;7398252;19;20014;-69
2022/08/19 02:59:13;;;;;;;130.38;58.25;;;;;;;18.66;100.00;100256.03;7395297;19;20364;-68
2022/08/19 03:01:43;;;;;;;116.15;57.03;;;;;;;18.66;100.00;100237.44;7397200;19;20421;-69
2022/08/19 03:04:15;;;;;;;139.88;61.78;;;;;;;18.66;100.00;100230.31;7396480;19;20019;-69
2022/08/19 03:06:46;;;;;;;140.77;62.08;;;;;;;18.66;100.00;100230.31;7395574;19;20015;-69
2022/08/19 03:09:18;;;;;;;144.10;62.35;;;;;;;18.68;100.00;100239.03;7398165;19;20146;-69
2022/08/19 03:11:47;;;;;;;133.63;59.10;;;;;;;18.68;100.00;100223.09;7395075;19;20018;-69
2022/08/19 03:14:17;;;;;;;153.45;62.33;;;;;;;18.67;100.00;100224.03;7396290;19;20431;-69
2022/08/19 03:16:48;;;;;;;128.77;57.90;;;;;;;18.67;100.00;100200.13;7398123;19;20022;-69
2022/08/19 03:19:18;;;;;;;151.85;62.53;;;;;;;18.66;100.00;100206.41;7396010;19;20525;-69
2022/08/19 03:21:47;;;;;;;146.30;61.60;;;;;;;18.65;100.00;100210.03;7395328;19;20095;-69
2022/08/19 03:24:19;;;;;;;158.65;62.22;;;;;;;18.65;100.00;100204.72;7395572;19;20478;-68
2022/08/19 03:26:51;;;;;;;170.45;65.85;;;;;;;18.65;100.00;100209.16;7397396;19;20027;-69
2022/08/19 03:29:20;;;;;;;158.40;63.95;;;;;;;18.66;100.00;100210.88;7396430;19;20049;-69
2022/08/19 03:31:50;;;;;;;159.30;66.97;;;;;;;18.66;100.00;100217.03;7397490;19;20018;-69
2022/08/19 03:34:20;;;;;;;145.75;62.65;;;;;;;18.67;100.00;100217.91;7394632;19;20039;-69
2022/08/19 03:36:49;;;;;;;166.60;66.55;;;;;;;18.66;100.00;100226.81;7394925;19;20022;-69
2022/08/19 03:39:20;;;;;;;177.13;66.38;;;;;;;18.68;100.00;100233.72;7395326;19;20074;-69
2022/08/19 03:41:52;;;;;;;172.35;66.47;;;;;;;18.70;100.00;100231.84;7395404;19;20014;-69
2022/08/19 03:44:23;;;;;;;178.88;66.78;;;;;;;18.72;100.00;100235.22;7395379;19;20022;-69
2022/08/19 03:46:53;;;;;;;179.02;66.60;;;;;;;18.73;100.00;100231.63;7396091;19;20038;-69
2022/08/19 03:49:23;;;;;;;169.75;64.68;;;;;;;18.73;100.00;100234.28;7395446;19;20014;-69
2022/08/19 03:51:52;;;;;;;173.68;65.57;;;;;;;18.75;100.00;100228.03;7395520;19;20018;-69
2022/08/19 03:54:26;;;;;;;171.35;64.38;;;;;;;18.75;100.00;100228.03;7394159;19;20026;-68
2022/08/19 03:56:56;;;;;;;168.73;63.38;;;;;;;18.75;100.00;100220.06;7395299;19;20018;-68
2022/08/19 03:59:26;;;;;;;168.82;63.53;;;;;;;18.75;100.00;100230.69;7394794;19;20015;-68
2022/08/19 04:01:56;;;;;;;160.75;62.63;;;;;;;18.74;100.00;100219.22;7395671;19;20029;-68
2022/08/19 04:04:25;;;;;;;149.73;60.97;;;;;;;18.73;100.00;100231.63;7393809;19;20384;-69
2022/08/19 04:06:55;;;;;;;136.80;57.30;;;;;;;18.73;100.00;100225.47;7393462;19;20014;-68
2022/08/19 04:09:27;;;;;;;144.75;60.20;;;;;;;18.72;100.00;100223.75;7395073;19;20022;-69
2022/08/19 04:11:58;;;;;;;154.38;61.85;;;;;;;18.71;100.00;100233.53;7393829;19;20015;-68
2022/08/19 04:14:33;;;;;;;161.30;61.35;;;;;;;18.72;100.00;100242.38;7394006;19;20018;-69
2022/08/19 04:17:04;;;;;;;162.48;61.60;;;;;;;18.72;100.00;100240.53;7393926;19;20022;-68
2022/08/19 04:19:33;;;;;;;142.85;58.90;;;;;;;18.72;100.00;100245.03;7393676;19;20039;-68
2022/08/19 04:22:02;;;;;;;141.43;58.25;;;;;;;18.72;100.00;100237.88;7394809;19;20026;-68
2022/08/19 04:24:33;;;;;;;159.80;61.38;;;;;;;18.74;100.00;100245.78;7392964;19;20042;-68
2022/08/19 04:27:02;;;;;;;139.20;57.58;;;;;;;18.75;100.00;100251.94;7394966;19;20027;-68
2022/08/19 04:29:31;;;;;;;140.68;56.53;;;;;;;18.78;100.00;100249.06;7392866;19;20021;-68
2022/08/19 04:32:01;;;;;;;141.40;59.03;;;;;;;18.80;100.00;100249.84;7392605;19;20022;-68
2022/08/19 04:34:31;;;;;;;159.95;60.88;;;;;;;18.82;100.00;100239.97;7392228;19;20017;-68
2022/08/19 04:37:01;;;;;;;142.32;57.97;;;;;;;18.83;100.00;100233.69;7393663;19;20032;-68
2022/08/19 04:44:55;;;;;;;143.43;57.08;;;;;;;18.78;100.00;100233.13;7392775;19;20018;-68
2022/08/19 04:47:23;;;;;;;146.00;56.63;;;;;;;18.79;100.00;100240.16;7394169;19;20018;-67
2022/08/19 04:49:52;;;;;;;145.73;57.65;;;;;;;18.81;100.00;100232.94;7394763;19;20035;-68
2022/08/19 04:52:20;;;;;;;155.82;60.03;;;;;;;18.81;100.00;100238.25;7392042;19;20078;-68
2022/08/19 04:54:51;;;;;;;138.65;56.30;;;;;;;18.81;100.00;100224.97;7398569;19;20031;-68
2022/08/19 04:57:20;;;;;;;143.18;60.28;;;;;;;18.82;100.00;100240.81;7401574;19;20022;-68
2022/08/19 04:59:48;;;;;;;141.90;58.72;;;;;;;18.84;100.00;100235.41;7397347;19;20473;-68
2022/08/19 05:02:17;;;;;;;137.13;57.60;;;;;;;18.84;100.00;100233.59;7400673;19;20014;-68
2022/08/19 05:04:45;;;;;;;140.55;58.55;;;;;;;18.85;100.00;100245.91;7397267;19;20494;-68
2022/08/19 05:07:14;;;;;;;138.57;58.35;;;;;;;18.88;100.00;100252.88;7400318;19;20027;-68
2022/08/19 05:09:42;;;;;;;156.32;61.92;;;;;;;18.90;100.00;100264.28;7400355;19;20036;-68
2022/08/19 05:12:14;;;;;;;168.32;63.28;;;;;;;18.94;100.00;100270.25;7400579;19;20018;-68
2022/08/19 05:14:42;;;;;;;144.18;59.28;;;;;;;18.97;100.00;100284.19;7398813;19;20026;-69
2022/08/19 05:17:10;;;;;;;135.00;57.47;;;;;;;19.00;100.00;100291.13;7400288;19;20039;-68
2022/08/19 05:22:35;;;;;;;141.88;57.97;;;;;;;19.03;100.00;100310.38;7400888;19;20019;-68
2022/08/19 05:25:07;;;;;;;142.05;60.15;;;;;;;19.04;100.00;100312.09;7398254;19;20364;-68
2022/08/19 05:27:38;;;;;;;113.78;54.60;;;;;;;19.02;100.00;100306.03;7398845;19;20022;-68
2022/08/19 05:30:08;;;;;;;106.35;52.15;;;;;;;19.03;100.00;100304.19;7400848;19;20360;-68
2022/08/19 05:32:37;;;;;;;122.50;54.10;;;;;;;19.03;100.00;100298.88;7400042;19;20502;-69
2022/08/19 05:35:07;;;;;;;140.32;58.08;;;;;;;19.07;100.00;100292.44;7398377;19;20018;-69
2022/08/19 05:37:35;;;;;;;111.95;52.97;;;;;;;19.06;100.00;100282.75;7400277;19;20011;-68
2022/08/19 05:40:05;;;;;;;117.60;53.50;;;;;;;19.07;100.00;100265.84;7398585;19;20021;-69
2022/08/19 05:42:34;;;;;;;129.48;54.70;;;;;;;19.08;100.00;100272.00;7397569;19;20035;-69
2022/08/19 05:45:06;;;;;;;121.15;52.83;;;;;;;19.09;100.00;100276.38;7397392;19;20025;-69
2022/08/19 05:47:35;;;;;;;110.68;53.38;;;;;;;19.09;100.00;100276.38;7399836;19;20373;-69
2022/08/19 05:50:04;;;;;;;108.95;51.85;;;;;;;19.11;100.00;100282.44;7397640;19;20035;-69
2022/08/19 05:52:32;;;;;;;126.70;52.95;;;;;;;19.13;100.00;100289.38;7399902;19;20090;-69
2022/08/19 05:55:01;;;;;;;102.30;49.17;;;;;;;19.15;100.00;100299.91;7397287;19;20041;-69
2022/08/19 05:57:30;;;;;;;100.82;48.53;;;;;;;19.15;100.00;100313.22;7399596;19;20018;-69
2022/08/19 06:00:01;;;;;;;110.13;51.47;;;;;;;19.20;100.00;100324.41;7397924;19;20485;-68
2022/08/19 06:02:33;;;;;;;102.65;49.53;;;;;;;19.25;100.00;100324.94;7399471;19;20022;-69
2022/08/19 06:05:02;;;;;;;96.63;48.75;;;;;;;19.30;100.00;100314.88;7395888;19;20498;-69
2022/08/19 06:07:31;;;;;;;99.28;49.15;;;;;;;19.33;100.00;100306.66;7398901;19;20007;-69
2022/08/19 06:09:59;;;;;;;95.13;49.17;;;;;;;19.37;100.00;100310.84;7399206;19;20485;-69
2022/08/19 06:12:28;;;;;;;102.45;50.60;;;;;;;19.39;100.00;100304.59;7399689;19;20502;-69
2022/08/19 06:14:57;;;;;;;87.00;45.85;;;;;;;19.39;100.00;100305.44;7396376;19;20477;-69
2022/08/19 06:17:25;;;;;;;101.70;49.60;;;;;;;19.44;100.00;100311.31;7399339;19;20039;-69
2022/08/19 06:19:57;;;;;;;95.13;47.28;;;;;;;19.47;100.00;100307.59;7397783;19;20046;-69
2022/08/19 06:22:25;;;;;;;91.05;48.25;;;;;;;19.50;100.00;100297.59;7399261;19;20028;-69
2022/08/19 06:24:55;;;;;;;112.15;52.65;;;;;;;19.52;100.00;100303.69;7395802;19;20376;-69
2022/08/19 06:27:24;;;;;;;89.95;47.40;;;;;;;19.55;100.00;100302.63;7397120;19;20038;-68
2022/08/19 06:29:53;;;;;;;86.88;45.47;;;;;;;19.61;100.00;100296.88;7396762;19;20022;-70
2022/08/19 06:32:22;;;;;;;91.35;47.72;;;;;;;19.66;100.00;100296.56;7396280;19;20077;-69
2022/08/19 06:34:50;;;;;;;100.93;47.90;;;;;;;19.70;100.00;100306.03;7396333;19;20019;-69
2022/08/19 06:37:22;;;;;;;84.57;44.53;;;;;;;19.74;100.00;100290.72;7397964;19;20490;-68
2022/08/19 06:39:51;;;;;;;102.13;46.97;;;;;;;19.79;100.00;100304.56;7395148;19;20011;-67
2022/08/19 06:42:19;;;;;;;70.07;41.95;;;;;;;19.81;100.00;100315.97;7397439;19;20032;-68
2022/08/19 06:44:50;;;;;;;68.82;41.75;;;;;;;19.81;100.00;100327.47;7396306;19;20042;-68
2022/08/19 06:47:22;;;;;;;91.60;44.25;;;;;;;19.85;100.00;100333.47;7398108;19;20015;-68
2022/08/19 06:49:50;;;;;;;71.90;41.17;;;;;;;19.90;100.00;100327.84;7398436;19;20026;-68
2022/08/19 06:52:19;;;;;;;79.63;43.05;;;;;;;19.93;100.00;100333.81;7398020;19;20018;-69
2022/08/19 06:54:50;;;;;;;82.70;41.40;;;;;;;20.00;100.00;100348.44;7395654;19;20074;-69
2022/08/19 06:57:19;;;;;;;72.35;40.45;;;;;;;20.05;100.00;100341.94;7395425;19;20090;-69
2022/08/19 06:59:47;;;;;;;67.80;40.28;;;;;;;20.11;100.00;100338.84;7396057;19;20438;-69
2022/08/19 07:02:16;;;;;;;68.00;39.45;;;;;;;20.15;100.00;100341.19;7397302;19;20055;-69
2022/08/19 07:04:44;;;;;;;58.30;37.45;;;;;;;20.15;100.00;100353.66;7395350;19;20385;-69
2022/08/19 07:07:15;;;;;;;56.80;34.67;;;;;;;20.12;100.00;100351.19;7395470;19;20023;-69
2022/08/19 07:09:46;;;;;;;53.85;35.17;;;;;;;20.14;100.00;100357.28;7397122;19;20015;-69
2022/08/19 07:12:24;;;;;;;69.20;39.30;;;;;;;20.19;100.00;100355.16;7396318;19;20027;-70
2022/08/19 07:14:52;;;;;;;64.30;38.53;;;;;;;20.26;100.00;100351.13;7395351;19;20022;-70
2022/08/19 07:17:21;;;;;;;62.15;38.35;;;;;;;20.31;100.00;100348.97;7395237;19;20011;-69
2022/08/19 07:19:50;;;;;;;58.08;36.92;;;;;;;20.34;100.00;100364.75;7393763;19;20108;-70
2022/08/19 07:22:20;;;;;;;61.25;38.72;;;;;;;20.36;100.00;100370.00;7396587;19;20015;-69
2022/08/19 07:24:49;;;;;;;63.58;39.20;;;;;;;20.37;100.00;100369.00;7394107;19;20078;-69
2022/08/19 07:27:21;;;;;;;58.88;37.95;;;;;;;20.38;100.00;100381.38;7396254;19;20018;-69
2022/08/19 07:29:49;;;;;;;60.35;38.58;;;;;;;20.43;100.00;100383.72;7394842;19;20025;-69
2022/08/19 07:32:18;;;;;;;70.75;39.88;;;;;;;20.47;100.00;100382.56;7396311;19;20023;-69
2022/08/19 07:34:46;;;;;;;62.63;38.30;;;;;;;20.49;100.00;100383.31;7394630;19;20019;-70
2022/08/19 07:37:15;;;;;;;60.58;38.50;;;;;;;20.47;100.00;100382.56;7395541;19;20007;-70
2022/08/19 07:39:43;;;;;;;64.85;39.60;;;;;;;20.49;100.00;100385.97;7395257;19;20140;-70
2022/08/19 07:42:14;;;;;;;76.47;43.53;;;;;;;20.49;100.00;100386.81;7395960;19;20042;-70
2022/08/19 07:44:45;;;;;;;63.20;41.17;;;;;;;20.51;100.00;100386.72;7394271;19;20045;-70
2022/08/19 07:47:15;;;;;;;63.67;42.50;;;;;;;20.50;100.00;100393.00;7393910;19;20031;-70
2022/08/19 07:49:50;;;;;;;67.90;44.15;;;;;;;20.49;100.00;100393.97;7395715;19;20014;-69
2022/08/19 07:52:19;;;;;;;79.18;46.53;;;;;;;20.46;100.00;100389.69;7396583;19;20027;-70
2022/08/19 07:54:49;;;;;;;81.47;46.58;;;;;;;20.49;100.00;100399.28;7394214;19;20378;-70
2022/08/19 07:57:18;;;;;;;83.65;47.35;;;;;;;20.44;100.00;100398.75;7395427;19;20019;-70
2022/08/19 07:59:49;;;;;;;68.03;44.15;;;;;;;20.42;100.00;100398.88;7394648;19;20042;-70
2022/08/19 08:02:18;;;;;;;83.53;47.97;;;;;;;20.41;100.00;100402.50;7395263;19;20018;-70
2022/08/19 08:10:09;;;;;;;84.97;48.75;;;;;;;20.44;100.00;100407.59;7395664;19;20021;-69
2022/08/19 08:12:41;;;;;;;98.85;53.33;;;;;;;20.49;100.00;100412.63;7395309;19;20028;-69
2022/08/19 08:15:18;;;;;;;79.47;48.88;;;;;;;20.48;100.00;100403.75;7393596;19;20050;-69
2022/08/19 08:17:47;;;;;;;92.45;51.05;;;;;;;20.49;100.00;100409.94;7395310;19;20019;-69
2022/08/19 08:20:16;;;;;;;82.78;48.75;;;;;;;20.48;100.00;100405.56;7394068;19;20031;-69
2022/08/19 08:25:30;;;;;;;93.65;53.17;;;;;;;20.54;100.00;100418.47;7394763;19;20072;-69
2022/08/19 08:27:59;;;;;;;110.63;55.53;;;;;;;20.57;100.00;100430.75;7392769;19;20059;-70
2022/08/19 08:30:34;;;;;;;86.10;50.55;;;;;;;20.57;100.00;100428.91;7394617;19;20018;-69
2022/08/19 08:33:03;;;;;;;103.85;53.92;;;;;;;20.58;100.00;100433.28;7393778;19;20019;-70
2022/08/19 08:35:31;;;;;;;81.68;48.60;;;;;;;20.58;100.00;100433.28;7391814;19;20025;-69
2022/08/19 08:38:01;;;;;;;85.75;48.63;;;;;;;20.59;100.00;100428.84;7393394;19;20018;-69
2022/08/19 08:40:34;;;;;;;80.68;52.33;;;;;;;20.55;100.00;100424.66;7392912;19;20013;-69
2022/08/19 08:43:08;;;;;;;84.20;51.63;;;;;;;20.58;100.00;100433.28;7393664;19;20032;-68
2022/08/19 08:45:49;;;;;;;84.63;51.03;;;;;;;20.60;100.00;100433.19;7393519;19;20028;-69
2022/08/19 08:48:23;;;;;;;82.93;51.63;;;;;;;20.60;100.00;100439.38;7395095;19;20029;-69
2022/08/19 08:50:56;;;;;;;76.70;49.53;;;;;;;20.59;100.00;100443.00;7393636;19;20421;-69
2022/08/19 08:53:26;;;;;;;82.05;50.35;;;;;;;20.60;100.00;100434.06;7394007;19;20019;-69
2022/08/19 08:55:55;;;;;;;84.00;51.00;;;;;;;20.62;100.00;100437.44;7394283;19;20022;-69
2022/08/19 08:58:54;;;;;;;77.93;48.35;;;;;;;20.64;100.00;100440.88;7393943;19;20011;-69
2022/08/19 09:01:25;;;;;;;87.05;50.40;;;;;;;20.64;100.00;100435.53;7391551;19;20028;-69
2022/08/19 09:03:54;;;;;;;84.97;52.55;;;;;;;20.66;100.00;100425.63;7391324;19;20015;-69
2022/08/19 09:06:37;;;;;;;77.68;49.10;;;;;;;20.65;100.00;100421.25;7391580;19;20021;-69
2022/08/19 09:09:19;;;;;;;85.93;51.87;;;;;;;20.68;100.00;100430.84;7394031;19;20085;-69
2022/08/19 09:11:58;;;;;;;77.45;49.08;;;;;;;20.65;100.00;100431.91;7393133;19;20018;-69
2022/08/19 09:14:40;;;;;;;78.22;50.75;;;;;;;20.64;100.00;100429.38;7391716;19;20351;-69
2022/08/19 09:17:12;;;;;;;71.47;48.70;;;;;;;20.62;100.00;100421.44;7392809;19;20013;-69
2022/08/19 09:19:53;;;;;;;88.30;52.50;;;;;;;20.65;100.00;100426.59;7390420;19;20011;-69
2022/08/19 09:22:23;;;;;;;78.80;51.80;;;;;;;20.72;100.00;100426.19;7392500;19;20018;-69
2022/08/19 09:24:52;;;;;;;72.10;50.38;;;;;;;20.74;100.00;100421.59;7391270;19;20035;-69
2022/08/19 09:27:23;;;;;;;76.20;51.47;;;;;;;20.78;100.00;100433.78;7393101;19;20007;-69
2022/08/19 09:29:53;;;;;;;64.85;46.85;;;;;;;20.81;100.00;100422.88;7392646;19;20508;-69
2022/08/19 09:32:25;;;;;;;65.32;46.90;;;;;;;20.83;100.00;100412.97;7394001;19;20025;-70
2022/08/19 09:34:55;;;;;;;75.28;48.53;;;;;;;20.86;100.00;100412.75;7392506;19;20382;-70
2022/08/19 09:37:24;;;;;;;70.25;47.58;;;;;;;20.93;100.00;100407.84;7393007;19;20028;-69
2022/08/19 09:39:52;;;;;;;67.90;47.97;;;;;;;21.01;100.00;100417.97;7394212;19;20090;-68
2022/08/19 09:42:21;;;;;;;57.15;44.13;;;;;;;21.05;100.00;100427.44;7397425;19;20074;-69
2022/08/19 09:44:50;;;;;;;62.75;45.95;;;;;;;21.07;100.00;100428.22;7396933;19;20022;-69
2022/08/19 09:47:18;;;;;;;64.20;46.13;;;;;;;21.06;100.00;100427.34;7399314;19;20482;-69
2022/08/19 09:49:50;;;;;;;57.00;43.13;;;;;;;21.02;98.75;100438.34;7399506;19;20082;-69
2022/08/19 09:52:18;;;;;;;58.75;43.83;;;;;;;21.01;100.00;100436.63;7400214;19;20040;-69
2022/08/19 09:54:47;;;;;;;61.53;45.17;;;;;;;21.00;100.00;100435.75;7396879;19;20015;-69
2022/08/19 09:57:15;;;;;;;62.85;45.35;;;;;;;20.96;100.00;100435.13;7398757;19;20019;-71
2022/08/19 09:59:44;;;;;;;59.53;45.30;;;;;;;20.94;100.00;100431.72;7398526;19;20014;-70
2022/08/19 10:02:13;;;;;;;56.25;42.80;;;;;;;20.93;100.00;100435.34;7397140;19;20007;-70
2022/08/19 10:07:25;;;;;;;61.35;44.08;;;;;;;20.90;100.00;100422.25;7396378;19;20033;-70
2022/08/19 10:09:53;;;;;;;59.42;45.08;;;;;;;20.88;100.00;100429.50;7399005;19;20011;-70
2022/08/19 10:12:22;;;;;;;62.60;44.75;;;;;;;20.87;100.00;100424.28;7398430;19;20362;-70
2022/08/19 10:14:53;;;;;;;66.45;46.28;;;;;;;20.83;99.58;100428.97;7396713;19;20367;-70
2022/08/19 10:17:21;;;;;;;58.90;42.88;;;;;;;20.77;99.66;100446.22;7399634;19;20029;-70
2022/08/19 10:19:50;;;;;;;65.38;47.13;;;;;;;20.72;99.12;100440.38;7398668;19;20018;-71
2022/08/19 10:22:20;;;;;;;69.72;46.22;;;;;;;20.65;100.00;100431.09;7396597;19;20027;-70
2022/08/19 10:24:52;;;;;;;64.90;46.28;;;;;;;20.59;100.00;100431.50;7396565;19;20434;-70
2022/08/19 10:27:20;;;;;;;66.85;45.97;;;;;;;20.59;100.00;100436.81;7398371;19;20023;-70
2022/08/19 10:29:49;;;;;;;68.90;46.05;;;;;;;20.56;100.00;100447.69;7398416;19;20038;-70
2022/08/19 10:32:17;;;;;;;67.82;46.58;;;;;;;20.57;100.00;100447.56;7398110;19;20025;-70
2022/08/19 10:34:46;;;;;;;63.75;45.25;;;;;;;20.54;99.51;100446.94;7395920;19;20481;-70
2022/08/19 10:37:15;;;;;;;67.05;48.17;;;;;;;20.48;98.61;100450.88;7395441;19;20019;-70
2022/08/19 10:39:43;;;;;;;68.82;44.70;;;;;;;20.49;100.00;100458.75;7397851;19;20014;-70
2022/08/19 10:42:15;;;;;;;74.78;48.08;;;;;;;20.46;100.00;100444.78;7396312;19;20044;-70
2022/08/19 10:44:44;;;;;;;70.97;46.72;;;;;;;20.42;100.00;100452.16;7397323;19;20078;-70
2022/08/19 10:47:13;;;;;;;82.38;49.20;;;;;;;20.41;100.00;100449.56;7398955;19;20022;-70
2022/08/19 10:57:48;;;;;;;87.07;48.40;;;;;;;20.08;100.00;100433.13;7397618;19;20031;-69
2022/08/19 11:00:17;;;;;;;77.60;46.08;;;;;;;20.08;100.00;100445.56;7395542;19;20505;-69
2022/08/19 11:02:46;;;;;;;89.90;49.55;;;;;;;20.04;100.00;100452.06;7394787;19;20479;-69
2022/08/19 11:05:14;;;;;;;87.35;48.50;;;;;;;19.97;100.00;100440.97;7394961;19;20023;-70
2022/08/19 11:07:44;;;;;;;85.03;47.85;;;;;;;19.94;100.00;100439.38;7396909;19;20014;-70
2022/08/19 11:10:18;;;;;;;90.30;49.20;;;;;;;19.93;100.00;100440.31;7397142;19;20031;-69
2022/08/19 11:12:53;;;;;;;88.22;48.75;;;;;;;19.93;100.00;100435.00;7395286;19;20086;-70
2022/08/19 11:15:23;;;;;;;90.03;48.58;;;;;;;19.93;100.00;100439.44;7394913;19;20038;-70
2022/08/19 11:17:53;;;;;;;85.93;47.70;;;;;;;19.91;100.00;100444.03;7395504;19;20022;-70
2022/08/19 11:20:23;;;;;;;87.22;45.67;;;;;;;19.91;100.00;100447.53;7396154;19;20011;-69
2022/08/19 11:22:54;;;;;;;88.40;47.67;;;;;;;19.88;100.00;100455.75;7394249;19;20502;-70
2022/08/19 11:25:22;;;;;;;89.72;47.08;;;;;;;19.85;100.00;100471.88;7394341;19;20022;-70
2022/08/19 11:27:53;;;;;;;82.65;45.83;;;;;;;19.82;100.00;100459.63;7396932;19;20035;-70
2022/08/19 11:30:22;;;;;;;83.82;46.42;;;;;;;19.80;100.00;100472.19;7396015;19;20018;-69
2022/08/19 11:32:51;;;;;;;86.60;48.00;;;;;;;19.79;100.00;100458.94;7394401;19;20019;-70
2022/08/19 11:35:19;;;;;;;92.10;47.63;;;;;;;19.77;100.00;100468.84;7394000;19;20018;-70
2022/08/19 11:37:48;;;;;;;95.55;49.80;;;;;;;19.78;100.00;100470.56;7395711;19;20549;-69